createdAt,value
2022-10-30T00:00:59.618Z,1005.84
2022-10-30T00:01:59.603Z,1005.85
2022-10-30T00:02:59.585Z,1005.85
2022-10-30T00:03:59.571Z,1005.8
2022-10-30T00:04:59.562Z,1005.86
2022-10-30T00:05:59.552Z,1005.86
2022-10-30T00:06:59.538Z,1005.82
2022-10-30T00:07:59.530Z,1005.85
2022-10-30T00:08:59.517Z,1005.84
2022-10-30T00:09:59.508Z,1005.89
2022-10-30T00:10:59.501Z,1005.8
2022-10-30T00:11:59.484Z,1005.85
2022-10-30T00:12:59.474Z,1005.83
2022-10-30T00:13:59.469Z,1005.83
2022-10-30T00:14:59.459Z,1005.87
2022-10-30T00:15:59.443Z,1005.87
2022-10-30T00:16:59.435Z,1005.84
2022-10-30T00:17:59.427Z,1005.81
2022-10-30T00:18:59.409Z,1005.78
2022-10-30T00:19:59.402Z,1005.78
2022-10-30T00:20:59.392Z,1005.79
2022-10-30T00:22:59.371Z,1005.78
2022-10-30T00:23:59.359Z,1005.78
2022-10-30T00:24:59.347Z,1005.79
2022-10-30T00:25:59.341Z,1005.72
2022-10-30T00:26:59.329Z,1005.75
2022-10-30T00:27:59.314Z,1005.8
2022-10-30T00:28:59.310Z,1005.75
2022-10-30T00:29:59.298Z,1005.74
2022-10-30T00:30:59.286Z,1005.78
2022-10-30T00:31:59.272Z,1005.74
2022-10-30T00:32:59.264Z,1005.75
2022-10-30T00:33:59.250Z,1005.73
2022-10-30T00:34:59.245Z,1005.75
2022-10-30T00:35:59.236Z,1005.67
2022-10-30T00:36:59.220Z,1005.71
2022-10-30T00:37:59.211Z,1005.72
2022-10-30T00:38:59.209Z,1005.65
2022-10-30T00:39:59.204Z,1005.68
2022-10-30T00:40:59.178Z,1005.67
2022-10-30T00:41:59.167Z,1005.69
2022-10-30T00:42:59.158Z,1005.66
2022-10-30T00:43:59.143Z,1005.67
2022-10-30T00:44:59.134Z,1005.76
2022-10-30T00:45:59.125Z,1005.72
2022-10-30T00:46:59.112Z,1005.7
2022-10-30T00:47:59.107Z,1005.71
2022-10-30T00:48:59.091Z,1005.76
2022-10-30T00:49:59.084Z,1005.74
2022-10-30T00:50:59.086Z,1005.77
2022-10-30T00:51:59.077Z,1005.76
2022-10-30T00:52:59.057Z,1005.73
2022-10-30T00:53:59.036Z,1005.75
2022-10-30T00:54:59.028Z,1005.73
2022-10-30T00:55:59.015Z,1005.76
2022-10-30T00:56:59.012Z,1005.74
2022-10-30T00:57:58.996Z,1005.68
2022-10-30T00:58:58.988Z,1005.73
2022-10-30T00:59:58.979Z,1005.69
2022-10-30T01:00:58.966Z,1005.68
2022-10-30T01:01:58.952Z,1005.68
2022-10-30T01:02:58.947Z,1005.72
2022-10-30T01:03:58.933Z,1005.71
2022-10-30T01:04:58.919Z,1005.68
2022-10-30T01:05:58.908Z,1005.74
2022-10-30T01:06:58.899Z,1005.72
2022-10-30T01:07:58.889Z,1005.76
2022-10-30T01:08:58.885Z,1005.78
2022-10-30T01:09:58.867Z,1005.7
2022-10-30T01:10:58.855Z,1005.68
2022-10-30T01:11:58.847Z,1005.72
2022-10-30T01:12:58.836Z,1005.75
2022-10-30T01:13:58.823Z,1005.73
2022-10-30T01:14:58.816Z,1005.72
2022-10-30T01:15:58.805Z,1005.72
2022-10-30T01:16:58.796Z,1005.7
2022-10-30T01:17:58.782Z,1005.69
2022-10-30T01:18:58.772Z,1005.67
2022-10-30T01:19:58.759Z,1005.71
2022-10-30T01:20:58.753Z,1005.7
2022-10-30T01:21:58.741Z,1005.68
2022-10-30T01:22:58.733Z,1005.73
2022-10-30T01:23:58.716Z,1005.75
2022-10-30T01:24:58.707Z,1005.68
2022-10-30T01:25:58.700Z,1005.67
2022-10-30T01:26:58.690Z,1005.78
2022-10-30T01:27:58.678Z,1005.68
2022-10-30T01:28:58.671Z,1005.7
2022-10-30T01:29:58.653Z,1005.77
2022-10-30T01:30:58.640Z,1005.8
2022-10-30T01:31:58.633Z,1005.77
2022-10-30T01:32:58.624Z,1005.72
2022-10-30T01:33:58.612Z,1005.72
2022-10-30T01:34:58.598Z,1005.68
2022-10-30T01:35:58.589Z,1005.76
2022-10-30T01:36:58.575Z,1005.69
2022-10-30T01:37:58.564Z,1005.67
2022-10-30T01:38:58.556Z,1005.71
2022-10-30T01:39:58.547Z,1005.72
2022-10-30T01:40:58.533Z,1005.73
2022-10-30T01:41:58.522Z,1005.72
2022-10-30T01:42:58.515Z,1005.74
2022-10-30T01:43:58.533Z,1005.71
2022-10-30T01:44:58.488Z,1005.75
2022-10-30T01:45:58.482Z,1005.74
2022-10-30T01:46:58.474Z,1005.74
2022-10-30T01:47:58.457Z,1005.8
2022-10-30T01:48:58.451Z,1005.79
2022-10-30T01:49:58.436Z,1005.8
2022-10-30T01:50:58.424Z,1005.81
2022-10-30T01:51:58.420Z,1005.82
2022-10-30T01:52:58.410Z,1005.85
2022-10-30T01:53:58.395Z,1005.84
2022-10-30T01:54:58.388Z,1005.83
2022-10-30T01:55:58.378Z,1005.89
2022-10-30T01:56:58.363Z,1005.9
2022-10-30T01:57:58.354Z,1005.89
2022-10-30T01:58:58.339Z,1005.83
2022-10-30T01:59:58.342Z,1005.85
2022-10-30T02:00:58.331Z,1005.87
2022-10-30T02:01:58.311Z,1005.85
2022-10-30T02:02:58.307Z,1005.87
2022-10-30T02:03:58.297Z,1005.85
2022-10-30T02:04:58.282Z,1005.89
2022-10-30T02:05:58.268Z,1005.9
2022-10-30T02:06:58.255Z,1005.88
2022-10-30T02:07:58.248Z,1005.86
2022-10-30T02:08:58.233Z,1005.85
2022-10-30T02:09:58.221Z,1005.87
2022-10-30T02:10:58.216Z,1005.8
2022-10-30T02:11:58.204Z,1005.86
2022-10-30T02:12:58.192Z,1005.81
2022-10-30T02:13:58.178Z,1005.82
2022-10-30T02:14:58.170Z,1005.85
2022-10-30T02:15:58.158Z,1005.8
2022-10-30T02:16:58.152Z,1005.78
2022-10-30T02:17:58.142Z,1005.79
2022-10-30T02:18:58.127Z,1005.75
2022-10-30T02:19:58.120Z,1005.76
2022-10-30T02:20:58.111Z,1005.7
2022-10-30T02:21:58.108Z,1005.77
2022-10-30T02:22:58.088Z,1005.79
2022-10-30T02:23:58.082Z,1005.78
2022-10-30T02:24:58.066Z,1005.74
2022-10-30T02:25:58.064Z,1005.76
2022-10-30T02:26:58.041Z,1005.73
2022-10-30T02:27:58.031Z,1005.7
2022-10-30T02:28:58.019Z,1005.78
2022-10-30T02:29:58.009Z,1005.75
2022-10-30T02:30:58.009Z,1005.76
2022-10-30T02:31:57.995Z,1005.71
2022-10-30T02:32:57.979Z,1005.71
2022-10-30T02:33:57.967Z,1005.74
2022-10-30T02:34:57.972Z,1005.7
2022-10-30T02:35:57.948Z,1005.76
2022-10-30T02:36:57.943Z,1005.8
2022-10-30T02:37:57.925Z,1005.76
2022-10-30T02:38:57.915Z,1005.75
2022-10-30T02:39:57.905Z,1005.77
2022-10-30T02:40:57.893Z,1005.71
2022-10-30T02:41:57.881Z,1005.78
2022-10-30T02:42:57.872Z,1005.76
2022-10-30T02:43:57.862Z,1005.76
2022-10-30T02:44:57.852Z,1005.79
2022-10-30T02:45:57.854Z,1005.69
2022-10-30T02:46:57.832Z,1005.79
2022-10-30T02:47:57.831Z,1005.82
2022-10-30T02:48:57.823Z,1005.81
2022-10-30T02:49:57.797Z,1005.79
2022-10-30T02:50:57.786Z,1005.83
2022-10-30T02:51:57.772Z,1005.84
2022-10-30T02:52:57.764Z,1005.77
2022-10-30T02:53:57.752Z,1005.83
2022-10-30T02:54:57.738Z,1005.79
2022-10-30T02:55:57.731Z,1005.78
2022-10-30T02:56:57.722Z,1005.81
2022-10-30T02:57:57.721Z,1005.81
2022-10-30T02:58:57.698Z,1005.82
2022-10-30T02:59:57.686Z,1005.75
2022-10-30T03:00:57.683Z,1005.84
2022-10-30T03:01:57.663Z,1005.77
2022-10-30T03:02:57.653Z,1005.73
2022-10-30T03:03:57.640Z,1005.79
2022-10-30T03:04:57.629Z,1005.8
2022-10-30T03:05:57.624Z,1005.74
2022-10-30T03:06:57.619Z,1005.7
2022-10-30T03:07:57.601Z,1005.76
2022-10-30T03:08:57.587Z,1005.72
2022-10-30T03:09:57.575Z,1005.73
2022-10-30T03:10:57.569Z,1005.69
2022-10-30T03:11:57.566Z,1005.7
2022-10-30T03:12:57.550Z,1005.71
2022-10-30T03:13:57.532Z,1005.67
2022-10-30T03:14:57.527Z,1005.65
2022-10-30T03:15:57.519Z,1005.68
2022-10-30T03:16:57.499Z,1005.6
2022-10-30T03:17:57.496Z,1005.67
2022-10-30T03:18:57.479Z,1005.77
2022-10-30T03:19:57.483Z,1005.76
2022-10-30T03:20:57.463Z,1005.76
2022-10-30T03:21:57.448Z,1005.78
2022-10-30T03:22:57.444Z,1005.78
2022-10-30T03:23:57.432Z,1005.81
2022-10-30T03:24:57.414Z,1005.76
2022-10-30T03:25:57.412Z,1005.78
2022-10-30T03:26:57.395Z,1005.8
2022-10-30T03:27:57.390Z,1005.8
2022-10-30T03:28:57.385Z,1005.81
2022-10-30T03:29:57.378Z,1005.75
2022-10-30T03:30:57.373Z,1005.82
2022-10-30T03:31:57.341Z,1005.84
2022-10-30T03:32:57.335Z,1005.83
2022-10-30T03:33:57.323Z,1005.85
2022-10-30T03:34:57.308Z,1005.81
2022-10-30T03:35:57.295Z,1005.84
2022-10-30T03:36:57.293Z,1005.85
2022-10-30T03:37:57.281Z,1005.8
2022-10-30T03:38:57.263Z,1005.83
2022-10-30T03:39:57.252Z,1005.91
2022-10-30T03:40:57.247Z,1005.92
2022-10-30T03:41:57.231Z,1005.82
2022-10-30T03:42:57.234Z,1005.86
2022-10-30T03:43:57.216Z,1005.92
2022-10-30T03:44:57.201Z,1005.88
2022-10-30T03:45:57.195Z,1005.9
2022-10-30T03:46:57.178Z,1005.87
2022-10-30T03:47:57.169Z,1005.92
2022-10-30T03:48:57.155Z,1005.85
2022-10-30T03:49:57.141Z,1005.86
2022-10-30T03:50:57.132Z,1005.85
2022-10-30T03:51:57.122Z,1005.84
2022-10-30T03:52:57.115Z,1005.78
2022-10-30T03:53:57.097Z,1005.85
2022-10-30T03:54:57.090Z,1005.9
2022-10-30T03:55:57.081Z,1005.91
2022-10-30T03:56:57.079Z,1005.85
2022-10-30T03:57:57.059Z,1005.8
2022-10-30T03:58:57.049Z,1005.78
2022-10-30T03:59:57.037Z,1005.8
2022-10-30T04:00:57.021Z,1005.77
2022-10-30T04:01:57.011Z,1005.72
2022-10-30T04:02:57.002Z,1005.71
2022-10-30T04:03:56.989Z,1005.7
2022-10-30T04:04:56.976Z,1005.67
2022-10-30T04:05:56.975Z,1005.67
2022-10-30T04:06:56.951Z,1005.7
2022-10-30T04:07:56.942Z,1005.69
2022-10-30T04:08:56.933Z,1005.76
2022-10-30T04:09:56.922Z,1005.83
2022-10-30T04:10:56.911Z,1005.87
2022-10-30T04:11:56.907Z,1005.86
2022-10-30T04:12:56.894Z,1005.92
2022-10-30T04:13:56.879Z,1005.91
2022-10-30T04:14:56.865Z,1005.94
2022-10-30T04:16:05.495Z,1005.93
2022-10-30T04:16:56.846Z,1005.87
2022-10-30T04:17:56.849Z,1005.82
2022-10-30T04:18:56.829Z,1005.85
2022-10-30T04:19:56.814Z,1005.9
2022-10-30T04:20:56.816Z,1005.88
2022-10-30T04:21:56.796Z,1005.85
2022-10-30T04:22:56.778Z,1005.8
2022-10-30T04:23:56.784Z,1005.78
2022-10-30T04:24:56.753Z,1005.88
2022-10-30T04:25:56.740Z,1005.83
2022-10-30T04:26:56.733Z,1005.79
2022-10-30T04:27:56.723Z,1005.8
2022-10-30T04:28:56.719Z,1005.84
2022-10-30T04:29:56.700Z,1005.83
2022-10-30T04:30:56.691Z,1005.85
2022-10-30T04:31:56.679Z,1005.88
2022-10-30T04:32:56.668Z,1005.83
2022-10-30T04:33:56.658Z,1005.8
2022-10-30T04:34:56.662Z,1005.79
2022-10-30T04:35:56.649Z,1005.77
2022-10-30T04:36:56.637Z,1005.78
2022-10-30T04:37:56.621Z,1005.84
2022-10-30T04:38:56.596Z,1005.83
2022-10-30T04:39:56.591Z,1005.81
2022-10-30T04:40:56.587Z,1005.82
2022-10-30T04:41:56.579Z,1005.85
2022-10-30T04:42:56.559Z,1005.81
2022-10-30T04:43:56.540Z,1005.84
2022-10-30T04:44:56.535Z,1005.83
2022-10-30T04:45:56.548Z,1005.79
2022-10-30T04:46:56.519Z,1005.83
2022-10-30T04:47:56.532Z,1005.86
2022-10-30T04:48:56.488Z,1005.82
2022-10-30T04:49:56.473Z,1005.82
2022-10-30T04:50:56.479Z,1005.78
2022-10-30T04:51:56.454Z,1005.72
2022-10-30T04:52:56.458Z,1005.7
2022-10-30T04:53:56.456Z,1005.77
2022-10-30T04:54:56.424Z,1005.78
2022-10-30T04:55:56.431Z,1005.84
2022-10-30T04:56:56.408Z,1005.82
2022-10-30T04:57:56.394Z,1005.8
2022-10-30T04:58:56.410Z,1005.81
2022-10-30T04:59:56.375Z,1005.74
2022-10-30T05:00:56.353Z,1005.75
2022-10-30T05:01:56.347Z,1005.77
2022-10-30T05:02:56.342Z,1005.81
2022-10-30T05:03:56.319Z,1005.77
2022-10-30T05:04:56.310Z,1005.77
2022-10-30T05:05:56.307Z,1005.77
2022-10-30T05:06:56.290Z,1005.76
2022-10-30T05:07:56.278Z,1005.74
2022-10-30T05:08:56.269Z,1005.77
2022-10-30T05:09:56.262Z,1005.8
2022-10-30T05:10:56.248Z,1005.72
2022-10-30T05:11:56.238Z,1005.78
2022-10-30T05:12:56.238Z,1005.84
2022-10-30T05:13:56.217Z,1005.84
2022-10-30T05:14:56.207Z,1005.78
2022-10-30T05:15:56.191Z,1005.72
2022-10-30T05:16:56.182Z,1005.76
2022-10-30T05:17:56.193Z,1005.85
2022-10-30T05:18:56.158Z,1005.68
2022-10-30T05:19:56.150Z,1005.8
2022-10-30T05:20:56.142Z,1005.75
2022-10-30T05:21:56.155Z,1005.75
2022-10-30T05:22:56.114Z,1005.75
2022-10-30T05:23:56.102Z,1005.74
2022-10-30T05:24:56.094Z,1005.72
2022-10-30T05:25:56.092Z,1005.77
2022-10-30T05:26:56.070Z,1005.7
2022-10-30T05:27:56.067Z,1005.67
2022-10-30T05:28:56.048Z,1005.68
2022-10-30T05:29:56.040Z,1005.67
2022-10-30T05:30:56.027Z,1005.69
2022-10-30T05:31:56.015Z,1005.69
2022-10-30T05:32:56.005Z,1005.75
2022-10-30T05:34:03.561Z,1005.74
2022-10-30T05:35:05.860Z,1005.71
2022-10-30T05:35:55.997Z,1005.65
2022-10-30T05:36:55.970Z,1005.64
2022-10-30T05:40:25.105Z,1005.67
2022-10-30T05:41:25.093Z,1005.67
2022-10-30T05:42:25.085Z,1005.64
2022-10-30T05:43:25.071Z,1005.67
2022-10-30T05:44:25.048Z,1005.67
2022-10-30T05:45:32.600Z,1005.67
2022-10-30T05:46:25.041Z,1005.65
2022-10-30T05:47:32.616Z,1005.75
2022-10-30T05:48:33.840Z,1005.7
2022-10-30T05:49:33.594Z,1005.71
2022-10-30T05:50:32.565Z,1005.72
2022-10-30T05:51:32.541Z,1005.77
2022-10-30T05:52:34.819Z,1005.84
2022-10-30T05:53:24.968Z,1005.8
2022-10-30T05:54:32.512Z,1005.82
2022-10-30T05:55:32.522Z,1005.82
2022-10-30T05:56:24.929Z,1005.88
2022-10-30T05:57:33.498Z,1005.91
2022-10-30T05:58:32.460Z,1005.93
2022-10-30T05:59:33.507Z,1005.96
2022-10-30T06:00:24.888Z,1005.98
2022-10-30T06:01:24.877Z,1006
2022-10-30T06:02:24.861Z,1006.1
2022-10-30T06:03:32.426Z,1005.95
2022-10-30T06:04:33.480Z,1006.02
2022-10-30T06:05:33.412Z,1006.08
2022-10-30T06:06:32.399Z,1006.04
2022-10-30T06:07:32.374Z,1006.02
2022-10-30T06:08:33.403Z,1006.02
2022-10-30T06:09:24.786Z,1006.04
2022-10-30T06:10:33.376Z,1006.08
2022-10-30T06:11:33.628Z,1006.05
2022-10-30T06:12:33.334Z,1006.06
2022-10-30T06:13:33.336Z,1006.14
2022-10-30T06:14:24.741Z,1006.1
2022-10-30T06:15:32.305Z,1006.09
2022-10-30T06:17:42.403Z,1006.18
2022-10-30T06:18:50.967Z,1006.12
2022-10-30T06:19:50.948Z,1006.15
2022-10-30T06:20:50.949Z,1006.16
2022-10-30T06:21:49.991Z,1006.2
2022-10-30T06:22:42.348Z,1006.2
2022-10-30T06:23:49.891Z,1006.19
2022-10-30T06:24:50.923Z,1006.22
2022-10-30T06:25:49.861Z,1006.21
2022-10-30T06:26:49.898Z,1006.19
2022-10-30T06:27:49.863Z,1006.17
2022-10-30T06:28:42.286Z,1006.21
2022-10-30T06:29:42.288Z,1006.17
2022-10-30T06:30:42.258Z,1006.14
2022-10-30T06:31:42.272Z,1006.19
2022-10-30T06:32:42.245Z,1006.17
2022-10-30T06:33:42.235Z,1006.17
2022-10-30T06:34:42.224Z,1006.15
2022-10-30T06:35:42.216Z,1006.23
2022-10-30T06:36:42.197Z,1006.22
2022-10-30T06:37:42.198Z,1006.24
2022-10-30T06:38:42.188Z,1006.28
2022-10-30T06:39:42.165Z,1006.26
2022-10-30T06:40:42.169Z,1006.22
2022-10-30T06:41:42.144Z,1006.19
2022-10-30T06:49:41.257Z,1006.21
2022-10-30T06:50:41.217Z,1006.18
2022-10-30T06:51:41.224Z,1006.23
2022-10-30T06:52:41.209Z,1006.21
2022-10-30T06:53:41.185Z,1006.22
2022-10-30T06:54:41.188Z,1006.17
2022-10-30T06:55:41.163Z,1006.21
2022-10-30T06:56:41.179Z,1006.23
2022-10-30T06:57:41.154Z,1006.22
2022-10-30T06:58:41.136Z,1006.24
2022-10-30T06:59:41.123Z,1006.21
2022-10-30T07:00:41.127Z,1006.22
2022-10-30T07:01:41.136Z,1006.3
2022-10-30T07:02:41.099Z,1006.22
2022-10-30T07:03:41.081Z,1006.26
2022-10-30T07:04:41.068Z,1006.23
2022-10-30T07:05:41.079Z,1006.23
2022-10-30T07:06:41.048Z,1006.17
2022-10-30T07:07:41.059Z,1006.16
2022-10-30T07:08:41.047Z,1006.18
2022-10-30T07:09:41.015Z,1006.17
2022-10-30T07:10:41.019Z,1006.14
2022-10-30T07:11:41.000Z,1006.17
2022-10-30T07:12:40.998Z,1006.13
2022-10-30T07:13:40.972Z,1006.09
2022-10-30T07:14:40.962Z,1006.15
2022-10-30T07:16:40.940Z,1006.14
2022-10-30T07:17:40.940Z,1006.16
2022-10-30T07:18:40.997Z,1006.15
2022-10-30T07:19:40.918Z,1006.13
2022-10-30T07:20:40.903Z,1006.17
2022-10-30T07:21:40.889Z,1006.08
2022-10-30T07:22:40.877Z,1006.09
2022-10-30T07:23:40.874Z,1006.08
2022-10-30T07:24:40.884Z,1006.1
2022-10-30T07:25:40.847Z,1006.06
2022-10-30T07:26:40.834Z,1006.09
2022-10-30T07:27:40.826Z,1006.06
2022-10-30T07:28:40.829Z,1006.1
2022-10-30T07:29:40.809Z,1006.1
2022-10-30T07:30:40.795Z,1006.06
2022-10-30T07:31:40.785Z,1006.12
2022-10-30T07:32:40.782Z,1006.09
2022-10-30T07:33:40.771Z,1006.08
2022-10-30T07:34:40.752Z,1006.1
2022-10-30T07:35:40.743Z,1006.12
2022-10-30T07:36:40.747Z,1006.09
2022-10-30T07:37:40.723Z,1006.11
2022-10-30T07:38:40.714Z,1006.2
2022-10-30T07:39:40.716Z,1006.14
2022-10-30T07:40:40.690Z,1006.15
2022-10-30T07:41:40.689Z,1006.17
2022-10-30T07:42:40.701Z,1006.14
2022-10-30T07:43:40.665Z,1006.11
2022-10-30T07:44:40.645Z,1006.18
2022-10-30T07:45:40.667Z,1006.23
2022-10-30T07:46:40.624Z,1006.18
2022-10-30T07:47:40.638Z,1006.19
2022-10-30T07:48:40.609Z,1006.24
2022-10-30T07:49:40.616Z,1006.18
2022-10-30T07:50:40.583Z,1006.2
2022-10-30T07:51:40.631Z,1006.24
2022-10-30T07:52:40.627Z,1006.26
2022-10-30T07:53:40.570Z,1006.22
2022-10-30T07:54:40.550Z,1006.23
2022-10-30T07:55:41.103Z,1006.2
2022-10-30T07:56:40.523Z,1006.27
2022-10-30T07:57:40.509Z,1006.34
2022-10-30T07:58:40.507Z,1006.34
2022-10-30T07:59:40.485Z,1006.31
2022-10-30T08:00:40.479Z,1006.29
2022-10-30T08:01:40.466Z,1006.31
2022-10-30T08:02:40.479Z,1006.27
2022-10-30T08:03:40.442Z,1006.28
2022-10-30T08:04:40.448Z,1006.28
2022-10-30T08:05:40.437Z,1006.3
2022-10-30T08:06:40.445Z,1006.25
2022-10-30T08:07:40.409Z,1006.28
2022-10-30T08:08:40.389Z,1006.27
2022-10-30T08:09:40.395Z,1006.28
2022-10-30T08:10:40.379Z,1006.27
2022-10-30T08:11:40.358Z,1006.33
2022-10-30T08:12:40.348Z,1006.37
2022-10-30T08:13:40.338Z,1006.32
2022-10-30T08:14:40.331Z,1006.37
2022-10-30T08:15:40.332Z,1006.37
2022-10-30T08:16:40.395Z,1006.36
2022-10-30T08:17:40.293Z,1006.36
2022-10-30T08:18:40.288Z,1006.4
2022-10-30T08:19:40.270Z,1006.41
2022-10-30T08:20:40.265Z,1006.47
2022-10-30T08:21:40.263Z,1006.44
2022-10-30T08:22:40.253Z,1006.43
2022-10-30T08:23:40.238Z,1006.41
2022-10-30T08:24:40.214Z,1006.43
2022-10-30T08:25:40.205Z,1006.43
2022-10-30T08:26:40.195Z,1006.47
2022-10-30T08:27:40.202Z,1006.43
2022-10-30T08:28:40.213Z,1006.48
2022-10-30T08:29:40.157Z,1006.45
2022-10-30T08:30:40.155Z,1006.44
2022-10-30T08:31:40.140Z,1006.45
2022-10-30T08:32:40.129Z,1006.49
2022-10-30T08:33:40.115Z,1006.42
2022-10-30T08:34:40.141Z,1006.39
2022-10-30T08:35:40.091Z,1006.37
2022-10-30T08:36:40.141Z,1006.39
2022-10-30T08:37:40.119Z,1006.4
2022-10-30T08:38:40.064Z,1006.39
2022-10-30T08:39:40.047Z,1006.35
2022-10-30T08:40:40.036Z,1006.34
2022-10-30T08:41:40.058Z,1006.39
2022-10-30T08:42:40.022Z,1006.33
2022-10-30T08:43:40.005Z,1006.34
2022-10-30T08:44:40.003Z,1006.32
2022-10-30T08:45:40.010Z,1006.38
2022-10-30T08:46:39.970Z,1006.37
2022-10-30T08:47:39.963Z,1006.36
2022-10-30T08:48:39.966Z,1006.43
2022-10-30T08:49:39.940Z,1006.38
2022-10-30T08:50:39.942Z,1006.48
2022-10-30T08:51:39.920Z,1006.48
2022-10-30T08:52:39.928Z,1006.49
2022-10-30T08:53:39.917Z,1006.48
2022-10-30T08:54:39.898Z,1006.4
2022-10-30T08:55:39.883Z,1006.37
2022-10-30T08:56:39.865Z,1006.42
2022-10-30T08:57:39.873Z,1006.41
2022-10-30T08:58:39.859Z,1006.4
2022-10-30T08:59:39.840Z,1006.47
2022-10-30T09:00:39.840Z,1006.51
2022-10-30T09:01:39.813Z,1006.49
2022-10-30T09:02:39.819Z,1006.52
2022-10-30T09:03:39.801Z,1006.46
2022-10-30T09:04:39.785Z,1006.53
2022-10-30T09:05:39.769Z,1006.45
2022-10-30T09:06:39.757Z,1006.49
2022-10-30T09:07:39.754Z,1006.49
2022-10-30T09:08:39.739Z,1006.56
2022-10-30T09:09:39.728Z,1006.5
2022-10-30T09:10:39.719Z,1006.47
2022-10-30T09:11:39.705Z,1006.44
2022-10-30T09:12:39.697Z,1006.42
2022-10-30T09:13:39.695Z,1006.44
2022-10-30T09:14:39.701Z,1006.43
2022-10-30T09:15:39.675Z,1006.42
2022-10-30T09:16:39.652Z,1006.43
2022-10-30T09:17:39.647Z,1006.39
2022-10-30T09:18:39.633Z,1006.39
2022-10-30T09:19:39.627Z,1006.42
2022-10-30T09:20:39.633Z,1006.35
2022-10-30T09:21:39.698Z,1006.38
2022-10-30T09:22:39.587Z,1006.43
2022-10-30T09:23:39.579Z,1006.36
2022-10-30T09:24:39.570Z,1006.38
2022-10-30T09:25:39.554Z,1006.39
2022-10-30T09:26:39.547Z,1006.35
2022-10-30T09:27:39.538Z,1006.4
2022-10-30T09:28:39.523Z,1006.36
2022-10-30T09:29:39.511Z,1006.37
2022-10-30T09:30:39.499Z,1006.36
2022-10-30T09:31:39.489Z,1006.4
2022-10-30T09:32:39.506Z,1006.38
2022-10-30T09:33:39.470Z,1006.34
2022-10-30T09:34:39.455Z,1006.3
2022-10-30T09:35:39.447Z,1006.37
2022-10-30T09:36:39.442Z,1006.35
2022-10-30T09:37:39.422Z,1006.35
2022-10-30T09:38:39.423Z,1006.28
2022-10-30T09:39:39.402Z,1006.37
2022-10-30T09:40:39.390Z,1006.34
2022-10-30T09:41:39.383Z,1006.28
2022-10-30T09:42:39.371Z,1006.28
2022-10-30T09:43:39.358Z,1006.28
2022-10-30T09:44:39.352Z,1006.35
2022-10-30T09:45:39.344Z,1006.25
2022-10-30T09:46:39.324Z,1006.29
2022-10-30T09:47:39.330Z,1006.28
2022-10-30T09:48:39.306Z,1006.3
2022-10-30T09:49:39.295Z,1006.29
2022-10-30T09:50:39.310Z,1006.28
2022-10-30T09:51:39.276Z,1006.24
2022-10-30T09:52:39.260Z,1006.27
2022-10-30T09:53:39.253Z,1006.3
2022-10-30T09:54:39.243Z,1006.3
2022-10-30T09:55:39.234Z,1006.29
2022-10-30T09:56:39.222Z,1006.32
2022-10-30T09:57:39.221Z,1006.23
2022-10-30T09:58:39.198Z,1006.29
2022-10-30T09:59:39.207Z,1006.25
2022-10-30T10:00:39.189Z,1006.26
2022-10-30T10:01:39.171Z,1006.29
2022-10-30T10:02:39.152Z,1006.22
2022-10-30T10:03:39.148Z,1006.2
2022-10-30T10:04:39.134Z,1006.12
2022-10-30T10:05:39.122Z,1006.14
2022-10-30T10:06:39.111Z,1006.16
2022-10-30T10:07:39.098Z,1006.07
2022-10-30T10:08:39.092Z,1006.13
2022-10-30T10:09:39.086Z,1006.18
2022-10-30T10:10:39.074Z,1006.07
2022-10-30T10:11:39.063Z,1006.11
2022-10-30T10:12:39.046Z,1006.08
2022-10-30T10:13:39.032Z,1006.13
2022-10-30T10:14:39.026Z,1006.1
2022-10-30T10:15:39.032Z,1006.1
2022-10-30T10:16:39.007Z,1006.1
2022-10-30T10:17:38.998Z,1006.12
2022-10-30T10:18:38.977Z,1006.11
2022-10-30T10:19:38.970Z,1006.12
2022-10-30T10:20:38.957Z,1006.1
2022-10-30T10:21:38.964Z,1006.07
2022-10-30T10:22:38.944Z,1006.04
2022-10-30T10:23:38.929Z,1006.07
2022-10-30T10:24:38.920Z,1006.08
2022-10-30T10:25:38.903Z,1006.03
2022-10-30T10:26:38.896Z,1006.08
2022-10-30T10:27:38.887Z,1006.08
2022-10-30T10:28:38.880Z,1006.07
2022-10-30T10:29:38.861Z,1006.1
2022-10-30T10:30:38.852Z,1006.05
2022-10-30T10:31:38.844Z,1006.05
2022-10-30T10:32:38.830Z,1005.93
2022-10-30T10:33:38.818Z,1005.94
2022-10-30T10:34:38.819Z,1006
2022-10-30T10:35:38.798Z,1005.99
2022-10-30T10:36:38.791Z,1005.98
2022-10-30T10:37:38.778Z,1005.96
2022-10-30T10:38:38.766Z,1006
2022-10-30T10:39:38.754Z,1005.98
2022-10-30T10:40:38.746Z,1006.03
2022-10-30T10:41:38.747Z,1006.02
2022-10-30T10:42:38.723Z,1005.97
2022-10-30T10:43:38.709Z,1006.02
2022-10-30T10:44:38.699Z,1005.99
2022-10-30T10:45:38.704Z,1005.96
2022-10-30T10:46:38.689Z,1005.91
2022-10-30T10:47:38.671Z,1005.96
2022-10-30T10:48:38.659Z,1005.99
2022-10-30T10:49:38.646Z,1005.95
2022-10-30T10:50:38.634Z,1005.96
2022-10-30T10:51:38.628Z,1005.94
2022-10-30T10:52:38.638Z,1005.99
2022-10-30T10:53:38.604Z,1005.93
2022-10-30T10:54:38.594Z,1005.88
2022-10-30T10:55:38.581Z,1005.93
2022-10-30T10:56:38.573Z,1005.9
2022-10-30T10:57:38.563Z,1005.86
2022-10-30T10:58:38.556Z,1005.82
2022-10-30T10:59:38.562Z,1005.86
2022-10-30T11:00:38.528Z,1005.83
2022-10-30T11:01:38.519Z,1005.86
2022-10-30T11:02:38.513Z,1005.85
2022-10-30T11:03:38.499Z,1005.86
2022-10-30T11:04:38.486Z,1005.89
2022-10-30T11:05:38.483Z,1005.88
2022-10-30T11:06:38.468Z,1005.9
2022-10-30T11:07:38.458Z,1005.89
2022-10-30T11:08:38.443Z,1005.84
2022-10-30T11:09:38.435Z,1005.86
2022-10-30T11:10:38.427Z,1005.81
2022-10-30T11:11:38.427Z,1005.87
2022-10-30T11:12:38.404Z,1005.88
2022-10-30T11:13:38.391Z,1005.85
2022-10-30T11:14:38.393Z,1005.82
2022-10-30T11:15:38.368Z,1005.84
2022-10-30T11:16:38.364Z,1005.77
2022-10-30T11:17:38.350Z,1005.7
2022-10-30T11:18:38.338Z,1005.74
2022-10-30T11:19:38.325Z,1005.75
2022-10-30T11:20:38.330Z,1005.79
2022-10-30T11:21:38.308Z,1005.88
2022-10-30T11:22:38.296Z,1005.97
2022-10-30T11:23:38.293Z,1005.87
2022-10-30T11:24:38.271Z,1005.94
2022-10-30T11:25:38.264Z,1005.88
2022-10-30T11:26:38.283Z,1005.91
2022-10-30T11:27:38.241Z,1005.74
2022-10-30T11:28:38.230Z,1005.84
2022-10-30T11:29:38.223Z,1005.75
2022-10-30T11:30:38.210Z,1005.78
2022-10-30T11:31:38.200Z,1005.8
2022-10-30T11:32:38.196Z,1005.81
2022-10-30T11:33:38.179Z,1005.77
2022-10-30T11:34:38.168Z,1005.78
2022-10-30T11:35:38.165Z,1005.74
2022-10-30T11:36:38.151Z,1005.74
2022-10-30T11:37:38.163Z,1005.71
2022-10-30T11:38:38.142Z,1005.71
2022-10-30T11:39:38.115Z,1005.66
2022-10-30T11:40:38.106Z,1005.63
2022-10-30T11:41:38.102Z,1005.6
2022-10-30T11:42:38.092Z,1005.6
2022-10-30T11:43:38.099Z,1005.57
2022-10-30T11:44:38.063Z,1005.61
2022-10-30T11:45:38.058Z,1005.65
2022-10-30T11:46:38.055Z,1005.58
2022-10-30T11:47:38.046Z,1005.56
2022-10-30T11:48:38.026Z,1005.64
2022-10-30T11:49:38.034Z,1005.59
2022-10-30T11:50:38.013Z,1005.5
2022-10-30T11:51:37.995Z,1005.51
2022-10-30T11:52:37.992Z,1005.38
2022-10-30T11:53:37.982Z,1005.45
2022-10-30T11:54:37.971Z,1005.57
2022-10-30T11:55:37.955Z,1005.53
2022-10-30T11:56:37.956Z,1005.46
2022-10-30T11:57:37.934Z,1005.56
2022-10-30T11:58:37.931Z,1005.55
2022-10-30T11:59:37.924Z,1005.51
2022-10-30T12:00:37.907Z,1005.45
2022-10-30T12:01:37.894Z,1005.42
2022-10-30T12:03:37.880Z,1005.5
2022-10-30T12:04:37.867Z,1005.3
2022-10-30T12:05:37.856Z,1005.42
2022-10-30T12:06:37.846Z,1005.41
2022-10-30T12:07:37.841Z,1005.47
2022-10-30T12:08:37.825Z,1005.44
2022-10-30T12:09:37.815Z,1005.49
2022-10-30T12:10:37.817Z,1005.47
2022-10-30T12:11:37.795Z,1005.4
2022-10-30T12:12:37.795Z,1005.3
2022-10-30T12:13:37.780Z,1005.39
2022-10-30T12:14:37.763Z,1005.3
2022-10-30T12:15:37.755Z,1005.28
2022-10-30T12:16:37.756Z,1005.21
2022-10-30T12:17:37.734Z,1005.19
2022-10-30T12:18:37.725Z,1005.12
2022-10-30T12:19:37.723Z,1005.21
2022-10-30T12:20:37.702Z,1005.22
2022-10-30T12:21:37.692Z,1005.16
2022-10-30T12:22:37.691Z,1005.2